createdAt,value
2019-05-13T00:02:01.069Z,14.01
2019-05-13T00:04:33.746Z,14.02
2019-05-13T00:07:04.852Z,14.05
2019-05-13T00:09:35.793Z,14.06
2019-05-13T00:12:06.970Z,14.08
2019-05-13T00:14:37.911Z,14.06
2019-05-13T00:17:08.744Z,14.05
2019-05-13T00:19:39.603Z,14.03
2019-05-13T00:22:11.425Z,14.02
2019-05-13T00:24:43.810Z,14.01
2019-05-13T00:27:14.438Z,14.01
2019-05-13T00:29:46.817Z,13.99
2019-05-13T00:32:17.762Z,13.97
2019-05-13T00:34:48.678Z,13.96
2019-05-13T00:37:20.948Z,13.94
2019-05-13T00:39:54.190Z,13.93
2019-05-13T00:42:24.708Z,13.94
2019-05-13T00:44:55.608Z,13.95
2019-05-13T00:47:27.306Z,13.96
2019-05-13T00:49:58.404Z,13.98
2019-05-13T00:52:30.261Z,13.99
2019-05-13T00:55:04.084Z,14.00
2019-05-13T00:57:34.142Z,14.00
2019-05-13T01:00:09.015Z,14.02
2019-05-13T01:02:41.159Z,14.05
2019-05-13T01:05:14.368Z,14.10
2019-05-13T01:07:44.763Z,14.08
2019-05-13T01:10:15.838Z,14.08
2019-05-13T01:12:46.974Z,14.05
2019-05-13T01:15:19.590Z,14.06
2019-05-13T01:17:50.394Z,14.08
2019-05-13T01:20:23.423Z,14.10
2019-05-13T01:22:54.228Z,14.12
2019-05-13T01:25:24.998Z,14.10
2019-05-13T01:27:55.992Z,14.07
2019-05-13T01:30:27.018Z,14.07
2019-05-13T01:32:57.856Z,14.07
2019-05-13T01:35:29.813Z,14.06
2019-05-13T01:38:00.751Z,14.09
2019-05-13T01:40:35.040Z,14.08
2019-05-13T01:43:07.849Z,14.10
2019-05-13T01:45:38.924Z,14.11
2019-05-13T01:48:09.825Z,14.11
2019-05-13T01:50:40.757Z,14.15
2019-05-13T01:53:14.269Z,14.13
2019-05-13T01:55:44.535Z,14.11
2019-05-13T01:58:15.185Z,14.09
2019-05-13T02:00:46.048Z,14.07
2019-05-13T02:03:16.985Z,14.06
2019-05-13T02:05:47.816Z,14.00
2019-05-13T02:08:18.755Z,13.97
2019-05-13T02:10:56.589Z,13.96
2019-05-13T02:13:27.431Z,13.95
2019-05-13T02:15:58.206Z,13.99
2019-05-13T02:18:29.078Z,14.02
2019-05-13T02:20:59.893Z,14.04
2019-05-13T02:23:30.934Z,14.03
2019-05-13T02:26:04.227Z,14.04
2019-05-13T02:28:36.685Z,14.05
2019-05-13T02:31:07.853Z,14.04
2019-05-13T02:33:42.373Z,14.04
2019-05-13T02:36:13.495Z,14.04
2019-05-13T02:38:45.877Z,14.06
2019-05-13T02:41:16.912Z,14.04
2019-05-13T02:43:48.665Z,14.03
2019-05-13T02:46:22.422Z,14.07
2019-05-13T02:48:52.748Z,14.06
2019-05-13T02:51:24.589Z,14.04
2019-05-13T02:53:55.185Z,14.06
2019-05-13T02:56:26.118Z,14.05
2019-05-13T02:58:57.168Z,14.12
2019-05-13T03:01:28.101Z,14.18
2019-05-13T03:03:58.897Z,14.25
2019-05-13T03:06:33.181Z,14.29
2019-05-13T03:09:03.304Z,14.38
2019-05-13T03:11:34.416Z,14.51
2019-05-13T03:14:05.510Z,14.62
2019-05-13T03:16:52.976Z,14.74
2019-05-13T03:19:24.516Z,14.81
2019-05-13T03:21:55.469Z,14.91
2019-05-13T03:24:26.093Z,14.99
2019-05-13T03:26:57.019Z,15.02
2019-05-13T03:29:27.896Z,15.07
2019-05-13T03:31:59.585Z,15.10
2019-05-13T03:34:36.203Z,15.14
2019-05-13T03:37:06.830Z,15.17
2019-05-13T03:39:37.739Z,15.18
2019-05-13T03:42:12.294Z,15.18
2019-05-13T03:44:45.053Z,15.13
2019-05-13T03:47:17.423Z,15.18
2019-05-13T03:49:49.589Z,15.18
2019-05-13T03:52:22.517Z,15.21
2019-05-13T03:54:55.971Z,15.23
2019-05-13T03:57:27.138Z,15.24
2019-05-13T03:59:57.850Z,15.25
2019-05-13T04:02:32.543Z,15.31
2019-05-13T04:05:04.151Z,15.35
2019-05-13T04:07:35.384Z,15.43
2019-05-13T04:10:08.161Z,15.44
2019-05-13T04:12:38.725Z,15.46
2019-05-13T04:15:12.855Z,15.49
2019-05-13T04:17:43.517Z,15.59
2019-05-13T04:20:16.301Z,15.62
2019-05-13T04:22:47.186Z,15.65
2019-05-13T04:25:18.077Z,15.61
2019-05-13T04:27:52.413Z,15.74
2019-05-13T04:30:23.010Z,15.91
2019-05-13T04:32:53.798Z,16.07
2019-05-13T04:35:24.723Z,16.26
2019-05-13T04:37:55.466Z,16.43
2019-05-13T04:40:26.662Z,16.63
2019-05-13T04:42:57.624Z,16.80
2019-05-13T04:45:32.664Z,16.96
2019-05-13T04:48:03.196Z,17.00
2019-05-13T04:50:34.319Z,16.99
2019-05-13T04:53:05.343Z,17.08
2019-05-13T04:55:38.229Z,17.06
2019-05-13T04:58:12.686Z,16.98
2019-05-13T05:00:50.021Z,17.07
2019-05-13T05:03:45.702Z,17.09
2019-05-13T05:06:42.386Z,17.27
2019-05-13T05:09:43.199Z,17.36
2019-05-13T05:12:16.929Z,17.60
2019-05-13T05:15:05.934Z,17.50
2019-05-13T05:17:48.551Z,17.54
2019-05-13T05:20:42.997Z,17.64
2019-05-13T05:23:32.970Z,17.77
2019-05-13T05:26:16.305Z,17.91
2019-05-13T05:29:03.418Z,18.14
2019-05-13T05:31:52.093Z,18.33
2019-05-13T05:34:51.957Z,18.33
2019-05-13T05:37:43.811Z,18.52
2019-05-13T05:40:28.194Z,18.51
2019-05-13T05:42:51.803Z,18.74
2019-05-13T05:45:23.260Z,19.04
2019-05-13T05:47:55.866Z,18.92
2019-05-13T05:50:28.235Z,19.00
2019-05-13T05:53:01.848Z,19.12
2019-05-13T05:55:35.342Z,19.29
2019-05-13T07:43:51.765Z,21.91
2019-05-13T07:46:22.877Z,22.32
2019-05-13T07:48:54.945Z,22.87
2019-05-13T07:51:25.766Z,23.83
2019-05-13T07:53:56.807Z,24.26
2019-05-13T07:56:27.637Z,24.04
2019-05-13T07:59:01.485Z,23.87
2019-05-13T08:01:32.779Z,24.04
2019-05-13T08:04:03.466Z,24.51
2019-05-13T08:06:34.564Z,24.68
2019-05-13T08:09:08.201Z,25.04
2019-05-13T08:11:55.588Z,25.34
2019-05-13T08:14:12.376Z,25.28
2019-05-13T08:16:43.394Z,25.44
2019-05-13T08:19:14.376Z,25.50
2019-05-13T08:21:45.233Z,25.14
2019-05-13T08:24:17.173Z,24.84
2019-05-13T08:26:50.057Z,24.48
2019-05-13T08:29:21.635Z,24.09
2019-05-13T08:31:52.331Z,24.05
2019-05-13T08:34:22.940Z,23.94
2019-05-13T08:36:53.902Z,24.18
2019-05-13T08:39:26.792Z,24.09
2019-05-13T08:42:11.712Z,24.59
2019-05-13T08:44:32.236Z,25.38
2019-05-13T08:47:03.627Z,25.98
2019-05-13T08:49:35.445Z,26.51
2019-05-13T08:52:06.186Z,26.90
2019-05-13T08:54:37.161Z,26.77
2019-05-13T08:57:08.159Z,26.57
2019-05-13T08:59:39.115Z,26.39
2019-05-13T09:02:12.922Z,26.82
2019-05-13T09:04:43.532Z,26.71
2019-05-13T09:07:16.316Z,26.97
2019-05-13T09:09:47.371Z,27.31
2019-05-13T09:12:29.567Z,27.49
2019-05-13T09:14:52.404Z,27.65
2019-05-13T09:17:23.131Z,27.40
2019-05-13T09:19:54.066Z,27.03
2019-05-13T09:22:24.940Z,26.87
2019-05-13T09:24:55.948Z,27.43
2019-05-13T09:27:27.393Z,27.65
2019-05-13T09:29:58.134Z,28.10
2019-05-13T09:32:31.821Z,28.49
2019-05-13T09:35:03.175Z,28.01
2019-05-13T09:37:34.157Z,26.97
2019-05-13T09:40:06.120Z,26.50
2019-05-13T09:42:48.155Z,27.71
2019-05-13T09:45:12.277Z,27.38
2019-05-13T09:47:42.379Z,28.18
2019-05-13T09:50:27.996Z,29.08
2019-05-13T09:52:45.978Z,29.15
2019-05-13T09:55:28.290Z,28.93
2019-05-13T09:57:52.610Z,28.59
2019-05-13T10:00:23.952Z,28.07
2019-05-13T10:02:54.833Z,27.74
2019-05-13T10:05:25.483Z,28.04
2019-05-13T10:07:56.322Z,27.26
2019-05-13T10:10:27.165Z,26.51
2019-05-13T10:13:09.298Z,26.66
2019-05-13T10:15:32.758Z,26.39
2019-05-13T10:18:03.577Z,25.67
2019-05-13T10:20:43.753Z,25.43
2019-05-13T10:23:15.257Z,25.06
2019-05-13T10:25:52.191Z,24.44
2019-05-13T10:28:23.748Z,23.60
2019-05-13T10:30:54.504Z,22.90
2019-05-13T10:33:25.558Z,22.48
2019-05-13T10:35:56.868Z,22.07
2019-05-13T10:38:28.147Z,21.84
2019-05-13T10:40:59.426Z,21.69
2019-05-13T10:43:32.179Z,21.42
2019-05-13T10:46:03.176Z,21.39
2019-05-13T10:48:34.465Z,21.44
2019-05-13T10:51:06.229Z,21.43
2019-05-13T10:53:36.948Z,21.48
2019-05-13T10:56:12.830Z,21.68
2019-05-13T10:58:44.936Z,21.91
2019-05-13T11:01:15.714Z,22.05
2019-05-13T11:03:46.342Z,21.88
2019-05-13T11:06:22.001Z,21.91
2019-05-13T11:08:53.124Z,22.01
2019-05-13T11:11:25.553Z,22.26
2019-05-13T11:14:11.010Z,22.79
2019-05-13T11:16:37.671Z,22.61
2019-05-13T11:19:11.427Z,22.76
2019-05-13T11:21:44.303Z,24.40
2019-05-13T11:24:14.446Z,24.93
2019-05-13T11:26:45.143Z,27.89
2019-05-13T11:29:15.979Z,28.94
2019-05-13T11:31:52.265Z,28.86
2019-05-13T11:34:23.588Z,27.97
2019-05-13T11:36:54.398Z,28.51
2019-05-13T11:39:25.459Z,27.78
2019-05-13T11:41:56.398Z,27.41
2019-05-13T11:44:27.440Z,28.94
2019-05-13T11:46:58.684Z,29.17
2019-05-13T11:49:31.656Z,27.95
2019-05-13T11:52:03.263Z,27.16
2019-05-13T11:54:34.292Z,26.37
2019-05-13T11:57:06.757Z,26.13
2019-05-13T11:59:37.827Z,25.90
2019-05-13T12:02:09.023Z,25.04
2019-05-13T12:04:43.119Z,24.68
2019-05-13T12:07:13.811Z,24.48
2019-05-13T12:09:44.595Z,24.56
2019-05-13T12:12:16.451Z,24.62
2019-05-13T12:15:16.161Z,25.13
2019-05-13T12:17:22.458Z,24.88
2019-05-13T12:19:54.218Z,25.33
2019-05-13T12:22:25.119Z,25.40
2019-05-13T12:24:56.059Z,24.47
2019-05-13T12:27:27.217Z,23.83
2019-05-13T12:29:58.177Z,23.39
2019-05-13T12:32:32.093Z,22.51
2019-05-13T12:35:03.483Z,21.53
2019-05-13T12:37:34.069Z,21.17
2019-05-13T12:40:05.573Z,21.17
2019-05-13T12:42:43.123Z,21.13
2019-05-13T12:45:13.925Z,21.00
2019-05-13T12:47:43.278Z,20.74
2019-05-13T12:50:15.479Z,20.42
2019-05-13T12:52:47.769Z,20.28
2019-05-13T12:55:18.672Z,19.98
2019-05-13T12:57:52.077Z,19.81
2019-05-13T13:00:23.704Z,19.76
2019-05-13T13:02:55.764Z,19.57
2019-05-13T13:05:33.163Z,19.61
2019-05-13T13:08:17.097Z,19.69
2019-05-13T13:10:34.490Z,19.83
2019-05-13T13:13:05.174Z,19.90
2019-05-13T13:15:41.902Z,19.81
2019-05-13T13:18:13.979Z,19.67
2019-05-13T13:20:42.308Z,19.67
2019-05-13T13:23:15.068Z,19.64
2019-05-13T13:25:52.695Z,19.74
2019-05-13T13:28:18.163Z,19.84
2019-05-13T13:30:52.534Z,20.04
2019-05-13T13:33:23.539Z,19.94
2019-05-13T13:38:26.719Z,19.86
2019-05-13T13:40:57.971Z,19.92
2019-05-13T13:43:28.905Z,19.99
2019-05-13T13:46:23.185Z,20.01
2019-05-13T13:48:33.749Z,20.36
2019-05-13T13:51:05.340Z,20.49
2019-05-13T13:53:36.545Z,20.81
2019-05-13T13:56:07.999Z,20.75
2019-05-13T13:58:43.819Z,20.83
2019-05-13T14:01:19.771Z,20.67
2019-05-13T14:03:47.369Z,20.79
2019-05-13T14:07:11.709Z,19.77
2019-05-13T14:07:22.012Z,21.09
2019-05-13T14:08:53.274Z,21.37
2019-05-13T14:11:25.230Z,21.51
2019-05-13T14:13:56.436Z,21.51
2019-05-13T14:16:32.517Z,21.48
2019-05-13T14:19:03.124Z,21.79
2019-05-13T14:21:33.647Z,22.16
2019-05-13T14:24:05.549Z,22.61
2019-05-13T14:26:36.444Z,22.46
2019-05-13T14:29:07.421Z,22.83
2019-05-13T14:31:38.414Z,23.42
2019-05-13T14:34:11.462Z,23.40
2019-05-13T14:36:41.838Z,23.32
2019-05-13T14:39:12.674Z,23.38
2019-05-13T14:41:44.009Z,23.54
2019-05-13T14:44:16.856Z,23.98
2019-05-13T14:46:48.195Z,24.25
2019-05-13T14:49:22.492Z,23.93
2019-05-13T14:51:56.294Z,23.61
2019-05-13T14:54:27.425Z,22.85
2019-05-13T14:56:58.546Z,22.49
2019-05-13T14:59:31.465Z,22.19
2019-05-13T15:02:02.566Z,21.84
2019-05-13T15:04:33.809Z,21.43
2019-05-13T15:07:04.685Z,21.23
2019-05-13T15:09:35.891Z,21.14
2019-05-13T15:12:06.834Z,21.18
2019-05-13T15:14:40.083Z,21.12
2019-05-13T15:17:12.852Z,21.10
2019-05-13T15:19:43.607Z,21.17
2019-05-13T15:22:17.028Z,21.33
2019-05-13T15:24:48.206Z,21.35
2019-05-13T15:27:22.071Z,21.16
2019-05-13T15:29:52.606Z,20.85
2019-05-13T15:32:23.546Z,20.71
2019-05-13T15:34:54.692Z,20.63
2019-05-13T15:37:26.081Z,20.61
2019-05-13T15:39:57.174Z,20.38
2019-05-13T15:42:28.055Z,20.42
2019-05-13T15:45:01.610Z,20.23
2019-05-13T15:47:31.527Z,20.10
2019-05-13T15:50:03.273Z,20.01
2019-05-13T15:52:33.916Z,19.86
2019-05-13T15:55:06.389Z,19.84
2019-05-13T15:57:37.115Z,19.79
2019-05-13T16:00:08.770Z,19.72
2019-05-13T16:02:41.978Z,19.67
2019-05-13T16:05:13.106Z,19.74
2019-05-13T16:07:43.768Z,19.72
2019-05-13T16:10:14.825Z,19.65
2019-05-13T16:12:45.952Z,19.64
2019-05-13T16:15:18.882Z,19.58
2019-05-13T16:17:52.172Z,19.43
2019-05-13T16:20:22.926Z,19.31
2019-05-13T16:22:53.933Z,19.30
2019-05-13T16:25:27.108Z,19.22
2019-05-13T16:28:01.344Z,19.23
2019-05-13T16:30:32.474Z,19.13
2019-05-13T16:33:03.720Z,19.05
2019-05-13T16:35:34.803Z,19.00
2019-05-13T16:38:05.631Z,18.85
2019-05-13T16:40:36.969Z,18.79
2019-05-13T16:43:07.950Z,18.62
2019-05-13T16:45:41.610Z,18.44
2019-05-13T16:48:12.300Z,18.37
2019-05-13T16:50:43.388Z,18.28
2019-05-13T16:53:14.321Z,18.24
2019-05-13T16:55:46.087Z,18.19
2019-05-13T16:58:18.499Z,18.14
2019-05-13T17:00:51.606Z,18.07
2019-05-13T17:03:21.859Z,18.02
2019-05-13T17:05:53.000Z,17.94
2019-05-13T17:08:24.038Z,17.87
2019-05-13T17:10:56.520Z,17.78
2019-05-13T17:13:27.582Z,17.73
2019-05-13T17:16:01.391Z,17.69
2019-05-13T17:18:32.347Z,17.56
2019-05-13T17:21:04.360Z,17.50
2019-05-13T17:23:35.409Z,17.44
2019-05-13T17:26:07.468Z,17.49
2019-05-13T17:28:41.474Z,17.46
2019-05-13T17:31:11.688Z,17.43
2019-05-13T17:33:42.742Z,17.42
2019-05-13T17:36:13.776Z,17.43
2019-05-13T17:38:44.636Z,17.49
2019-05-13T17:41:15.646Z,17.56
2019-05-13T17:43:46.684Z,17.58
2019-05-13T17:46:17.624Z,17.60
2019-05-13T17:48:51.888Z,17.61
2019-05-13T17:51:22.657Z,17.64
2019-05-13T17:53:53.722Z,17.59
2019-05-13T17:56:24.754Z,17.53
2019-05-13T17:58:55.929Z,17.46
2019-05-13T18:01:27.443Z,17.27
2019-05-13T18:03:57.880Z,17.12
2019-05-13T18:06:28.934Z,17.01
2019-05-13T18:09:01.218Z,16.99
2019-05-13T18:11:32.359Z,16.97
2019-05-13T18:14:03.464Z,16.94
2019-05-13T18:16:34.400Z,16.89
2019-05-13T18:19:06.153Z,16.82
2019-05-13T18:21:36.893Z,16.80
2019-05-13T18:24:08.038Z,16.79
2019-05-13T18:26:41.566Z,16.79
2019-05-13T18:29:12.262Z,16.79
2019-05-13T18:31:43.536Z,16.78
2019-05-13T18:34:14.439Z,16.78
2019-05-13T18:36:45.286Z,16.74
2019-05-13T18:39:17.950Z,16.72
2019-05-13T18:41:48.916Z,16.74
2019-05-13T18:44:19.930Z,16.74
2019-05-13T18:46:52.354Z,16.70
2019-05-13T18:49:24.059Z,16.77
2019-05-13T18:51:54.998Z,16.78
2019-05-13T18:54:25.833Z,16.82
2019-05-13T18:56:56.553Z,16.78
2019-05-13T18:59:27.608Z,16.78
2019-05-13T19:02:01.461Z,16.78
2019-05-13T19:04:31.900Z,16.74
2019-05-13T19:07:03.632Z,16.71
2019-05-13T19:09:34.937Z,16.68
2019-05-13T19:12:06.779Z,16.65
2019-05-13T19:14:41.169Z,16.65
2019-05-13T19:17:12.327Z,16.62
2019-05-13T19:19:43.083Z,16.60
2019-05-13T19:22:14.140Z,16.62
2019-05-13T19:24:45.064Z,16.59
2019-05-13T19:27:16.103Z,16.56
2019-05-13T19:29:47.024Z,16.53
2019-05-13T19:32:17.896Z,16.53
2019-05-13T19:34:51.621Z,16.51
2019-05-13T19:37:22.541Z,16.52
2019-05-13T19:39:53.659Z,16.50
2019-05-13T19:42:24.182Z,16.49
2019-05-13T19:44:55.538Z,16.45
2019-05-13T19:47:26.570Z,16.46
2019-05-13T19:49:58.636Z,16.46
2019-05-13T19:52:32.065Z,16.47
2019-05-13T19:55:02.251Z,16.46
2019-05-13T19:57:32.939Z,16.48
2019-05-13T20:00:13.396Z,16.49
2019-05-13T20:02:42.372Z,16.52
2019-05-13T20:05:13.267Z,16.50
2019-05-13T20:07:44.206Z,16.50
2019-05-13T20:10:15.576Z,16.52
2019-05-13T20:12:45.980Z,16.57
2019-05-13T20:15:17.224Z,16.59
2019-05-13T20:17:48.673Z,16.60
2019-05-13T20:20:21.191Z,16.59
2019-05-13T20:22:52.865Z,16.58
2019-05-13T20:25:23.945Z,16.61
2019-05-13T20:27:54.882Z,16.60
2019-05-13T20:30:25.813Z,16.61
2019-05-13T20:32:56.855Z,16.59
2019-05-13T20:35:28.202Z,16.60
2019-05-13T20:37:59.136Z,16.58
2019-05-13T20:40:32.268Z,16.59
2019-05-13T20:43:02.963Z,16.55
2019-05-13T20:45:33.868Z,16.53
2019-05-13T20:48:05.446Z,16.48
2019-05-13T20:50:36.301Z,16.42
2019-05-13T20:53:07.246Z,16.39
2019-05-13T20:55:38.268Z,16.38
2019-05-13T20:58:09.296Z,16.32
2019-05-13T21:00:42.230Z,16.28
2019-05-13T21:03:12.455Z,16.25
2019-05-13T21:05:43.470Z,16.22
2019-05-13T21:08:14.277Z,16.19
2019-05-13T21:10:46.957Z,16.15
2019-05-13T21:13:17.785Z,16.13
2019-05-13T21:15:48.729Z,16.09
2019-05-13T21:18:22.000Z,16.02
2019-05-13T21:20:51.934Z,16.05
2019-05-13T21:23:23.075Z,16.04
2019-05-13T21:25:53.926Z,15.96
2019-05-13T21:28:26.383Z,15.93
2019-05-13T21:30:56.899Z,15.88
2019-05-13T21:33:27.866Z,15.86
2019-05-13T21:35:58.817Z,15.82
2019-05-13T21:38:32.225Z,15.79
2019-05-13T21:41:02.400Z,15.74
2019-05-13T21:43:33.336Z,15.69
2019-05-13T21:46:05.296Z,15.66
2019-05-13T21:48:36.031Z,15.62
2019-05-13T21:51:06.964Z,15.59
2019-05-13T21:53:37.908Z,15.60
2019-05-13T21:56:08.845Z,15.57
2019-05-13T21:58:41.623Z,15.51
2019-05-13T22:01:11.905Z,15.49
2019-05-13T22:03:42.900Z,15.47
2019-05-13T22:06:13.782Z,15.46
2019-05-13T22:08:44.756Z,15.46
2019-05-13T22:11:18.352Z,15.40
2019-05-13T22:13:51.261Z,15.40
2019-05-13T22:16:21.558Z,15.40
2019-05-13T22:18:52.606Z,15.33
2019-05-13T22:21:23.430Z,15.31
2019-05-13T22:23:54.296Z,15.33
2019-05-13T22:26:25.727Z,15.34
2019-05-13T22:28:57.475Z,15.33
2019-05-13T22:31:31.139Z,15.33
2019-05-13T22:34:01.813Z,15.30
2019-05-13T22:36:32.757Z,15.33
2019-05-13T22:39:04.360Z,15.26
2019-05-13T22:41:34.927Z,15.26
2019-05-13T22:44:05.824Z,15.29
2019-05-13T22:46:37.729Z,15.21
2019-05-13T22:49:08.559Z,15.15
2019-05-13T22:51:41.248Z,15.08
2019-05-13T22:54:12.128Z,15.04
2019-05-13T22:56:43.034Z,15.04
2019-05-13T22:59:13.805Z,15.07
2019-05-13T23:01:44.696Z,15.01
2019-05-13T23:04:15.611Z,15.01
2019-05-13T23:06:46.445Z,14.98
2019-05-13T23:09:17.179Z,14.98
2019-05-13T23:11:48.017Z,14.94
2019-05-13T23:14:18.950Z,14.91
2019-05-13T23:16:49.681Z,14.89
2019-05-13T23:19:21.716Z,14.84
2019-05-13T23:21:52.690Z,14.86
2019-05-13T23:24:23.212Z,14.83
2019-05-13T23:26:54.369Z,14.85
2019-05-13T23:29:25.392Z,14.84
2019-05-13T23:31:56.330Z,14.84
2019-05-13T23:34:27.191Z,14.81
2019-05-13T23:36:58.104Z,14.78
2019-05-13T23:39:29.072Z,14.76
2019-05-13T23:42:01.427Z,14.82
2019-05-13T23:44:32.557Z,14.80
2019-05-13T23:47:03.648Z,14.75
2019-05-13T23:49:34.434Z,14.79
2019-05-13T23:52:05.331Z,14.78
2019-05-13T23:54:36.507Z,14.74
2019-05-13T23:57:08.157Z,14.74
2019-05-13T23:59:41.674Z,14.70
